Racecast

Collin Roof

Temperance Bedford (MI) · 9 · SECMI D1MONROE · Compare head to head

Athlete rating 107.0 2026 TF season
Best race 132.1 XC
Races 66
Seasons 5 2022 — 2026

RankedNation #72586·MI #3114·MI D1 #1728·SEC #145·Team #14 ?

Rating scale ?

Cross Country

2025 XC 104.0

Temperance Bedford (MI) · Grade 9

Date Meet Event Result Place Rating Difficulty PR/SR Flags
2025-10-16 Hudson Mills Metropark - OFFICIAL 5000m 20:26.5 88th · 4th on team 106.3 +0.036 ★CR CSR
2025-10-11 Munson Park 5000m 21:35.6 32nd · 6th on team 102.3 +0.054 ★CR CSR
2025-09-27 Lake Erie Metro Park OFFICIAL 5000m 20:33.1 6th · 2nd on team 108.5 +0.055 ★CR CSR RSR
2025-09-25 Indian Creek OFFICIAL 5000m 19:59.5 42nd · 1st on team 108.4 +0.039 ★PR ★CR SR CSR RSR
2025-09-19 Ella Sharp Park OFFICIAL 5000m 20:32.1 72nd · 1st on team 106.2 +0.038 PR ★CR SR CSR RSR
2025-09-09 Willow Metropark OFFICIAL 5000m 22:13.8 87th · 7th on team 99.2 +0.048 PR ★CR SR CSR RSR
2025-08-22 Saline High School 5000m 22:27.5 27th · 8th on team 97.1 +0.039 PR ★CR SR CSR RSR

2024 XC 126.1

Temperance Bedford (MI) · Grade 8

Date Meet Event Result Place Rating Difficulty PR/SR Flags
2024-10-23 Milan HS OFFICIAL 3218m 13:22.91 47th · 5th on team 127.1 +0.041 ★CR CSR
2024-10-19 Airport HS 3218m 13:33.8 25th · 4th on team 124.1 +0.033 ★CR CSR
2024-10-16 Munson Park 3218m 13:01.4 50th · 5th on team 128.8 +0.034 ★CR CSR
2024-10-12 Munson Park 3200m 13:05.2 35th · 3rd on team 127.6 +0.034 CSR
2024-10-05 Monroe Township Stoneco Park 3218m 12:47.44 13th · 3rd on team 127.9 +0.006 ★PR ★CR SR CSR
2024-10-02 Lincoln Middle School 3218m 13:46.6 48th · 5th on team 123.2 +0.043 ★CR SR CSR
2024-09-28 Lake Erie Metro Park OFFICIAL 3200m 12:52.6 30th · 2nd on team 130.0 +0.034 ★PR ★CR SR CSR RSR
2024-09-19 Manly W. Bennett Park 3218m 14:45.81 49th · 4th on team 120.1 +0.100 ★CR SR CSR RSR

2023 XC 126.2

Temperance Bedford (MI) · Grade 7

Date Meet Event Result Place Rating Difficulty PR/SR Flags
2023-10-25 Milan HS OFFICIAL 3218m 14:57.1 91st · 7th on team 114.5 +0.041 CR CSR
2023-10-18 Indian Creek OFFICIAL 3218m 12:49.6 26th · 1st on team 131.6 +0.038 PR ★CR SR CSR RSR
2023-10-14 Munson Park 3200m 13:45.7 43rd · 2nd on team 123.2 +0.034 SR CSR
2023-10-07 Monroe Township Stoneco Park 3218m 12:49.7 14th · 2nd on team 128.7 +0.006 PR CR SR CSR
2023-10-04 Ella Sharp Park OFFICIAL 3218m 13:16.2 31st · 1st on team 130.5 +0.055 ★CR CSR
2023-09-30 Lake Erie Metro Park OFFICIAL 3218m 12:56.5 47th · 2nd on team 130.7 +0.034 ★CR SR CSR RSR
2023-09-22 Ella Sharp Park OFFICIAL 3218m 13:18.2 60th · 2nd on team 130.1 +0.055 CR SR CSR RSR
2023-09-20 Heritage Park (Adrian) OFFICIAL 3218m 14:07 40th · 2nd on team 120.0 +0.046 ★CR SR CSR RSR

2022 XC 123.4

Temperance Bedford (MI) · Grade 6

Date Meet Event Result Place Rating Difficulty PR/SR Flags
2022-10-22 Hudson HS 3218m 13:28.9 73rd · 8th on team 125.7 +0.029 ★CR CSR
2022-10-19 Saline High School 3218m 13:45.3 56th · 9th on team 122.6 +0.016 ★CR CSR
2022-10-15 Munson Park 3200m 13:03.4 38th · 8th on team 129.6 +0.034 PR ★CR SR CSR
2022-10-08 Monroe Township Stoneco Park 3218m 13:07.6 27th · 8th on team 126.0 +0.006 CR CSR
2022-10-05 Tecumseh HS 3218m 12:55.8 29th · 4th on team 132.1 +0.036 PR ★CR ★R SR CSR RSR
2022-10-01 Lake Erie Metro Park OFFICIAL 3218m 13:21.2 49th · 6th on team 127.7 +0.034 PR CR R SR CSR RSR
2022-09-23 Ella Sharp Park OFFICIAL 3218m 13:59.9 99th · 9th on team 124.8 +0.055 PR CR R SR CSR RSR
2022-09-21 Manly W. Bennett Park 3218m 14:57.4 49th · 7th on team 121.9 +0.100 PR CR R SR CSR RSR
2022-09-17 Ottawa Park Golf Course 3200m 14:11.8 47th · 9th on team 112.2 -0.037 ★CR R CSR RSR
2022-09-10 Hedges Boyer Park 3200m 13:24.8 30th · 1st on team 111.9 -0.089 PR ★CR R SR CSR RSR

Track & Field

2026 TF 103.7

Temperance Bedford (MI) · Grade 9

Date Meet Event Result Place Rating Difficulty PR/SR Flags
2026-05-21 Dundee Freshman Beck Invitational 800m 2:17.97 5th · 1st on team 110.2 -0.026 ★PR SR RSR
2026-05-21 Dundee Freshman Beck Invitational 1600m 5:17.6 7th · 1st on team 106.9 -0.026 ★PR SR
2026-04-28 SEC-HS: Bedford @ Monroe 800m 2:26.59 7th · 4th on team 103.0 -0.032
2026-04-28 SEC-HS: Bedford @ Monroe 1600m 5:36.06 7th · 4th on team 100.4 -0.032
2026-04-25 Railsplitter Invite (EQ approved) 800m 2:28.1 28th · 3rd on team 102.0 -0.032
2026-04-20 SEC-HS: Bedford @ Pioneer 800m 2:21.75 6th · 4th on team 107.0 -0.028 PR SR RSR
2026-04-14 SEC-HS: Huron & Saline at Bedford 1600m 5:27.10 16th · 3rd on team 102.8 -0.033 PR SR RSR
2026-04-14 SEC-HS: Huron & Saline at Bedford 800m 2:24.51 15th · 4th on team 104.4 -0.033 PR SR RSR
2026-04-09 Whitmer JV Invitational 800m 2:27.1 8th · 2nd on team 101.8 -0.040 PR SR RSR
2026-04-07 SEC-HS: Bedford & Dexter @ Skyline 1600m 5:35.27 30th · 5th on team 100.5 -0.033 PR SR RSR
2026-04-07 SEC-HS: Bedford & Dexter @ Skyline 800m 2:28.78 23rd · 4th on team 101.3 -0.033 PR SR RSR

2025 TF 107.7

Temperance Bedford (MI) · Grade 8

Date Meet Event Result Place Rating Difficulty PR/SR Flags
2025-05-13 SEC-MS Championship 800m 2:42.41 18th · 2nd on team 111.9 -0.026 PR SR RSR
2025-05-09 SEC-MS Bedford@Monroe Dual Meet 2025 lj 11-7.5 -0.032
2025-05-09 SEC-MS Bedford@Monroe Dual Meet 2025 800m 3:00.42 5th · 2nd on team 100.0 -0.032
2025-05-05 SEC-MS: Lincoln @ Bedford lj 12' 8" -0.033
2025-05-05 SEC-MS: Lincoln @ Bedford 800m 2:47.18 5th · 2nd on team 107.7 -0.033
2025-05-01 SEC-MS: Bedford @ Saline lj 11' 1.5" -0.038
2025-05-01 SEC-MS: Bedford @ Saline 400m 1:11.64 9th · 2nd on team -0.038 ★PR SR
2025-04-28 SEC-MS: Bedford at Adrian lj 11' 10" -0.024
2025-04-28 SEC-MS: Bedford at Adrian 800m 2:43.45 1st · 1st on team 111.1 -0.024 PR SR RSR
2025-04-24 SEC-MS Pinckney @ Bedford lj 12' 3" -0.033

2024 TF 104.8

Temperance Bedford (MI) · Grade 7

Date Meet Event Result Place Rating Difficulty PR/SR Flags
2024-05-14 SEC-MS Championship (Pinc) 3200m 13:08.53 14th · 1st on team 107.9 -0.033 ★PR SR RSR
2024-05-10 SEC-MS: Monroe at Bedford lj 12' 7.75 -0.033
2024-05-10 SEC-MS: Monroe at Bedford 3200m 13:33.43 1st · 1st on team 104.3 -0.033 PR SR RSR
2024-04-25 SEC MS: Saline @ Bedford lj 11' 7.5 -0.033
2024-04-25 SEC MS: Saline @ Bedford 1600m 6:26.92 10th · 5th on team 102.2 -0.033 SR RSR

2023 TF 103.1

Temperance Bedford (MI) · Grade 6

Date Meet Event Result Place Rating Difficulty PR/SR Flags
2023-05-17 23 Saline Middle School Hornet Relays 800m 3:31.91 34th · 5th on team -0.042
2023-05-17 23 Saline Middle School Hornet Relays 1600m 6:07.77 28th · 4th on team 106.8 -0.042 PR SR RSR
2023-05-15 SEC-MS: Lincoln & Bedford @ Monroe 800m 2:55.75 10th · 4th on team 103.1 -0.032 PR SR RSR
2023-05-15 SEC-MS: Lincoln & Bedford @ Monroe 3200m 13:43.5 2nd · 2nd on team 103.8 -0.032 PR SR RSR
2023-05-08 SEC-MS Chelsea & Ypsi @Bedford 400m 1:17.84 11th · 8th on team -0.033 PR SR
2023-05-08 SEC-MS Chelsea & Ypsi @Bedford 3200m 14:00 5th · 3rd on team 100.9 -0.033 PR SR
2023-05-04 SEC-MS Bedford at Saline 1600m 6:28.64 12th · 4th on team 101.0 -0.038 PR SR RSR